createdAt,value
2022-09-27T00:04:00.473Z,42.35
2022-09-27T00:09:02.521Z,43.83
2022-09-27T00:14:06.273Z,52.47
2022-09-27T00:19:13.785Z,49.47
2022-09-27T00:24:23.146Z,49.80
2022-09-27T00:29:25.150Z,63.78
2022-09-27T00:34:27.137Z,50.45
2022-09-27T00:39:29.241Z,51.47
2022-09-27T00:44:33.703Z,46.05
2022-09-27T00:49:41.381Z,54.35
2022-09-27T00:54:46.265Z,50.15
2022-09-27T00:59:57.732Z,51.85
2022-09-27T01:05:01.008Z,51.20
2022-09-27T01:10:04.078Z,50.42
2022-09-27T01:15:26.602Z,58.45
2022-09-27T01:20:50.580Z,58.22
2022-09-27T01:31:24.325Z,54.88
2022-09-27T01:36:31.923Z,63.20
2022-09-27T01:41:53.044Z,56.80
2022-09-27T01:47:36.964Z,57.90
2022-09-27T01:53:07.100Z,56.55
2022-09-27T01:58:37.069Z,52.63
2022-09-27T02:03:49.205Z,57.55
2022-09-27T02:09:14.494Z,48.90
2022-09-27T02:14:45.266Z,56.47
2022-09-27T02:20:22.914Z,65.20
2022-09-27T02:26:05.742Z,58.78
2022-09-27T02:31:07.988Z,55.03
2022-09-27T02:36:12.118Z,62.85
2022-09-27T02:41:20.482Z,70.28
2022-09-27T02:46:50.364Z,54.25
2022-09-27T02:52:23.309Z,48.78
2022-09-27T02:58:03.031Z,72.65
2022-09-27T03:03:27.854Z,53.88
2022-09-27T03:08:37.404Z,64.93
2022-09-27T03:14:01.390Z,52.92
2022-09-27T03:19:02.425Z,60.42
2022-09-27T03:24:23.067Z,61.70
2022-09-27T03:29:31.510Z,71.32
2022-09-27T03:34:42.613Z,69.20
2022-09-27T03:39:44.573Z,106.03
2022-09-27T03:44:46.665Z,82.18
2022-09-27T03:49:49.187Z,56.08
2022-09-27T03:54:51.582Z,64.43
2022-09-27T03:59:53.754Z,59.22
2022-09-27T04:05:13.861Z,73.95
2022-09-27T04:10:16.898Z,50.90
2022-09-27T04:15:19.644Z,53.70
2022-09-27T04:20:24.549Z,40.78
2022-09-27T04:25:26.742Z,35.25
2022-09-27T04:30:32.217Z,38.20
2022-09-27T04:36:15.464Z,38.15
2022-09-27T04:41:32.878Z,37.88
2022-09-27T04:46:35.319Z,41.85
2022-09-27T04:51:37.792Z,39.17
2022-09-27T04:56:40.095Z,49.30
2022-09-27T05:01:43.113Z,54.57
2022-09-27T05:07:03.305Z,56.10
2022-09-27T05:12:12.149Z,51.00
2022-09-27T05:17:20.517Z,48.33
2022-09-27T05:22:40.821Z,46.53
2022-09-27T05:27:43.208Z,42.13
2022-09-27T05:32:50.209Z,36.50
2022-09-27T05:38:01.823Z,40.45
2022-09-27T05:43:06.629Z,35.55
2022-09-27T05:48:09.295Z,46.55
2022-09-27T05:53:20.296Z,70.95
2022-09-27T05:58:22.713Z,65.82
2022-09-27T06:03:33.074Z,51.85
2022-09-27T06:08:53.745Z,70.60
2022-09-27T06:13:57.534Z,59.88
2022-09-27T06:24:03.109Z,74.00
2022-09-27T06:29:09.231Z,71.55
2022-09-27T06:34:14.156Z,63.20
2022-09-27T06:39:16.958Z,48.93
2022-09-27T06:44:37.321Z,47.40
2022-09-27T06:49:57.659Z,56.58
2022-09-27T06:55:04.837Z,47.75
2022-09-27T07:00:28.853Z,57.08
2022-09-27T07:05:57.162Z,58.58
2022-09-27T07:11:15.483Z,40.45
2022-09-27T07:16:19.308Z,36.00
2022-09-27T07:21:21.516Z,49.20
2022-09-27T07:26:23.893Z,44.50
2022-09-27T07:31:26.236Z,43.55
2022-09-27T07:36:31.056Z,46.43
2022-09-27T07:41:33.603Z,43.63
2022-09-27T07:46:35.594Z,42.65
2022-09-27T07:52:13.092Z,39.55
2022-09-27T07:57:23.839Z,37.00
2022-09-27T08:02:28.334Z,37.70
2022-09-27T08:07:32.927Z,40.17
2022-09-27T08:12:36.101Z,32.13
2022-09-27T08:17:38.900Z,39.75
2022-09-27T08:22:50.928Z,37.90
2022-09-27T08:28:03.721Z,36.25
2022-09-27T08:33:32.312Z,30.65
2022-09-27T08:38:35.543Z,35.00
2022-09-27T08:44:25.706Z,35.70
2022-09-27T08:50:26.683Z,34.92
2022-09-27T08:55:57.230Z,29.65
2022-09-27T09:01:14.876Z,22.92
2022-09-27T09:07:03.260Z,27.20
2022-09-27T09:12:37.609Z,26.58
2022-09-27T09:18:01.565Z,29.83
2022-09-27T09:23:34.123Z,29.88
2022-09-27T09:28:45.132Z,29.50
2022-09-27T09:33:55.294Z,35.10
2022-09-27T09:39:13.285Z,34.50
2022-09-27T09:44:29.569Z,34.95
2022-09-27T09:49:48.038Z,30.40
2022-09-27T09:55:01.150Z,30.38
2022-09-27T10:00:18.966Z,34.03
2022-09-27T10:05:27.227Z,30.95
2022-09-27T10:10:36.817Z,31.90
2022-09-27T10:16:14.055Z,30.77
2022-09-27T10:21:24.372Z,28.27
2022-09-27T10:26:27.683Z,27.45
2022-09-27T10:31:37.213Z,25.30
2022-09-27T10:37:21.903Z,25.60
2022-09-27T10:42:45.110Z,20.90
2022-09-27T10:47:47.625Z,23.80
2022-09-27T10:53:16.236Z,20.63
2022-09-27T10:58:33.551Z,23.15
2022-09-27T11:03:45.826Z,21.02
2022-09-27T11:08:48.897Z,20.10
2022-09-27T11:14:08.166Z,18.40
2022-09-27T11:19:39.256Z,19.50
2022-09-27T11:25:32.001Z,18.90
2022-09-27T11:30:58.491Z,17.05
2022-09-27T11:36:22.219Z,16.15
2022-09-27T11:42:14.200Z,15.73
2022-09-27T11:47:42.669Z,16.65
2022-09-27T11:53:09.463Z,15.40
2022-09-27T11:58:48.258Z,12.95
2022-09-27T12:04:10.105Z,12.77
2022-09-27T12:09:22.936Z,12.93
2022-09-27T12:14:48.544Z,11.68
2022-09-27T12:19:54.546Z,11.70
2022-09-27T12:25:17.064Z,12.40
2022-09-27T12:30:34.251Z,13.63
2022-09-27T12:35:47.165Z,9.07
2022-09-27T12:40:52.666Z,8.50
2022-09-27T12:46:24.327Z,9.45
2022-09-27T12:51:35.932Z,9.52
2022-09-27T12:57:01.272Z,9.30
2022-09-27T13:02:35.916Z,9.13
2022-09-27T13:08:09.081Z,9.68
2022-09-27T13:13:15.624Z,8.10
2022-09-27T13:18:53.227Z,7.00
2022-09-27T13:23:58.113Z,8.73
2022-09-27T13:29:22.230Z,9.93
2022-09-27T13:34:52.016Z,8.07
2022-09-27T13:40:16.749Z,8.00
2022-09-27T13:45:40.610Z,7.00
2022-09-27T13:50:56.311Z,7.47
2022-09-27T13:55:59.561Z,7.68
2022-09-27T14:01:18.884Z,8.90
2022-09-27T14:06:28.130Z,9.95
2022-09-27T14:11:36.342Z,9.13
2022-09-27T14:16:48.297Z,10.10
2022-09-27T14:22:14.598Z,10.00
2022-09-27T14:27:37.191Z,12.35
2022-09-27T14:33:04.154Z,11.68
2022-09-27T14:38:38.984Z,11.65
2022-09-27T14:43:54.008Z,12.82
2022-09-27T14:48:56.418Z,10.82
2022-09-27T14:54:05.579Z,14.00
2022-09-27T14:59:16.205Z,13.65
2022-09-27T15:04:20.330Z,13.35
2022-09-27T15:09:23.025Z,14.02
2022-09-27T15:14:25.848Z,14.13
2022-09-27T15:19:29.850Z,12.00
2022-09-27T15:24:46.731Z,14.02
2022-09-27T15:29:53.256Z,16.52
2022-09-27T15:34:57.023Z,15.38
2022-09-27T15:45:29.814Z,14.60
2022-09-27T15:50:33.820Z,12.77
2022-09-27T15:55:45.139Z,13.65
2022-09-27T16:00:55.768Z,15.00
2022-09-27T16:06:02.460Z,22.58
2022-09-27T16:11:06.079Z,17.38
2022-09-27T16:16:14.985Z,20.70
2022-09-27T16:21:17.627Z,22.00
2022-09-27T16:26:19.948Z,29.23
2022-09-27T16:31:22.353Z,28.35
2022-09-27T16:36:24.572Z,16.58
2022-09-27T16:41:26.709Z,57.10
2022-09-27T16:46:29.263Z,31.13
2022-09-27T16:51:50.021Z,45.33
2022-09-27T16:56:55.261Z,23.95
2022-09-27T17:01:58.380Z,19.70
2022-09-27T17:07:01.231Z,16.83
2022-09-27T17:12:03.383Z,27.13
2022-09-27T17:17:06.289Z,49.85
2022-09-27T17:22:08.690Z,27.38
2022-09-27T17:27:10.833Z,38.08
2022-09-27T17:32:13.656Z,25.77
2022-09-27T17:37:15.826Z,26.97
2022-09-27T17:42:19.119Z,21.90
2022-09-27T17:47:39.557Z,21.60
2022-09-27T17:52:41.999Z,34.35
2022-09-27T17:57:46.366Z,34.38
2022-09-27T18:02:48.662Z,30.35
2022-09-27T18:07:50.828Z,38.47
2022-09-27T18:12:53.805Z,37.35
2022-09-27T18:17:58.248Z,43.00
2022-09-27T18:23:00.905Z,40.92
2022-09-27T18:28:03.234Z,42.75
2022-09-27T18:33:05.298Z,42.20
2022-09-27T18:38:07.695Z,36.45
2022-09-27T18:43:09.727Z,41.30
2022-09-27T18:48:11.766Z,39.67
2022-09-27T18:53:13.962Z,36.97
2022-09-27T18:58:16.601Z,43.03
2022-09-27T19:03:18.708Z,40.42
2022-09-27T19:08:20.778Z,39.17
2022-09-27T19:13:27.832Z,34.50
2022-09-27T19:18:31.290Z,32.90
2022-09-27T19:23:33.556Z,31.02
2022-09-27T19:28:38.100Z,31.00
2022-09-27T19:33:41.390Z,30.77
2022-09-27T19:38:44.108Z,28.40
2022-09-27T19:43:51.948Z,27.05
2022-09-27T19:48:55.198Z,22.20
2022-09-27T19:53:57.328Z,21.90
2022-09-27T19:59:01.678Z,25.85
2022-09-27T20:04:05.856Z,26.55
2022-09-27T20:09:07.930Z,29.95
2022-09-27T20:14:10.008Z,25.83
2022-09-27T20:19:12.174Z,23.17
2022-09-27T20:24:17.186Z,22.02
2022-09-27T20:29:19.261Z,18.40
2022-09-27T20:34:21.326Z,18.20
2022-09-27T20:39:24.290Z,18.75
2022-09-27T20:44:26.239Z,19.00
2022-09-27T20:49:28.131Z,19.67
2022-09-27T20:54:30.057Z,19.17
2022-09-27T20:59:33.150Z,18.38
2022-09-27T21:04:35.299Z,17.60
2022-09-27T21:09:38.705Z,19.98
2022-09-27T21:14:40.633Z,19.85
2022-09-27T21:19:42.493Z,16.67
2022-09-27T21:24:44.372Z,17.50
2022-09-27T21:29:46.253Z,17.38
2022-09-27T21:34:48.138Z,16.85
2022-09-27T21:39:50.505Z,17.88
2022-09-27T21:44:52.358Z,19.02
2022-09-27T21:49:54.469Z,19.10
2022-09-27T21:54:56.361Z,22.58
2022-09-27T21:59:58.253Z,23.55
2022-09-27T22:05:00.249Z,26.52
2022-09-27T22:10:02.139Z,21.90
2022-09-27T22:15:04.453Z,23.95
2022-09-27T22:20:06.749Z,25.58
2022-09-27T22:25:08.791Z,26.25
2022-09-27T22:30:11.401Z,21.70
2022-09-27T22:35:13.405Z,21.90
2022-09-27T22:40:15.579Z,22.65
2022-09-27T22:45:18.558Z,23.33
2022-09-27T22:50:20.546Z,20.40
2022-09-27T22:55:22.443Z,24.45
2022-09-27T23:00:25.105Z,20.75
2022-09-27T23:05:27.528Z,24.53
2022-09-27T23:10:30.296Z,27.85
2022-09-27T23:15:33.098Z,24.73
2022-09-27T23:20:35.532Z,25.20
2022-09-27T23:25:37.521Z,27.55
2022-09-27T23:30:39.356Z,29.30
2022-09-27T23:35:41.364Z,30.95
2022-09-27T23:40:44.351Z,27.50
2022-09-27T23:45:46.261Z,24.07
2022-09-27T23:50:48.373Z,26.02
2022-09-27T23:56:13.518Z,19.33
